Time;durP1;ratioP1;P1;durP2;ratioP2;P2;SDS_P1;SDS_P2;PMS_P1;PMS_P2;Temp;Humidity;BMP_temperature;BMP_pressure;BME280_temperature;BME280_humidity;BME280_pressure;Samples;Min_cycle;Max_cycle;Signal;HPM_P1;HPM_P2
2023/11/01 00:00:05;;;;;;;12.10;5.53;;;;;;;13.93;100.00;99421.79;1723278;83;21158;-67
2023/11/01 00:02:40;;;;;;;13.83;5.45;;;;;;;13.93;100.00;99426.46;1723186;83;21683;-67
2023/11/01 00:05:11;;;;;;;12.25;5.10;;;;;;;13.92;100.00;99420.66;1723208;83;21165;-67
2023/11/01 00:07:40;;;;;;;11.68;4.78;;;;;;;13.90;100.00;99416.77;1722951;83;21577;-68
2023/11/01 00:10:10;;;;;;;11.83;5.00;;;;;;;13.91;100.00;99412.10;1723113;82;21161;-67
2023/11/01 00:12:39;;;;;;;12.95;5.33;;;;;;;13.89;100.00;99399.12;1723098;83;21141;-67
2023/11/01 00:15:10;;;;;;;13.40;4.95;;;;;;;13.89;100.00;99399.12;1723128;82;21623;-66
2023/11/01 00:17:39;;;;;;;14.83;4.90;;;;;;;13.88;100.00;99405.16;1723122;83;22087;-67
2023/11/01 00:20:09;;;;;;;12.18;5.00;;;;;;;13.88;100.00;99401.03;1723221;82;21176;-67
2023/11/01 00:22:38;;;;;;;11.60;4.95;;;;;;;13.88;100.00;99401.57;1723406;83;21169;-67
2023/11/01 00:25:08;;;;;;;13.30;5.00;;;;;;;13.88;100.00;99402.95;1723229;82;21121;-66
2023/11/01 00:27:38;;;;;;;10.28;5.00;;;;;;;13.86;100.00;99396.31;1723159;82;21145;-66
2023/11/01 00:30:08;;;;;;;10.55;5.17;;;;;;;13.86;100.00;99404.57;1723311;83;21573;-67
2023/11/01 00:32:39;;;;;;;9.83;4.20;;;;;;;13.88;100.00;99404.33;1723158;83;21101;-66
2023/11/01 00:35:08;;;;;;;13.03;4.78;;;;;;;13.88;100.00;99398.81;1723112;83;21149;-66
2023/11/01 00:37:37;;;;;;;11.97;4.55;;;;;;;13.87;100.00;99394.39;1723109;83;21122;-67
2023/11/01 00:40:07;;;;;;;12.47;4.67;;;;;;;13.87;100.00;99386.97;1722936;83;21188;-66
2023/11/01 00:42:37;;;;;;;14.47;4.60;;;;;;;13.89;100.00;99392.23;1724509;82;21121;-65
2023/11/01 00:45:07;;;;;;;10.20;4.72;;;;;;;13.88;100.00;99391.94;1727257;83;21165;-68
2023/11/01 00:47:35;;;;;;;10.60;4.62;;;;;;;13.86;100.00;99380.33;1727178;83;21110;-68
2023/11/01 00:50:06;;;;;;;9.48;4.90;;;;;;;13.85;100.00;99374.52;1727258;83;21569;-65
2023/11/01 00:52:35;;;;;;;10.00;4.70;;;;;;;13.86;100.00;99379.79;1707230;83;21121;-67
2023/11/01 00:55:05;;;;;;;11.03;4.90;;;;;;;13.85;100.00;99369.86;1727315;83;21176;-67
2023/11/01 00:57:34;;;;;;;9.18;4.42;;;;;;;13.86;100.00;99368.77;1727193;83;21165;-68
2023/11/01 01:00:06;;;;;;;9.50;4.50;;;;;;;13.86;100.00;99365.19;1727417;83;21114;-66
2023/11/01 01:02:35;;;;;;;15.72;4.95;;;;;;;13.85;100.00;99363.52;1727583;83;21138;-67
2023/11/01 01:05:06;;;;;;;9.85;4.80;;;;;;;13.84;100.00;99365.43;1727322;83;21149;-65
2023/11/01 01:07:39;;;;;;;10.48;4.87;;;;;;;13.84;100.00;99367.34;1727449;83;21149;-66
2023/11/01 01:10:11;;;;;;;14.93;5.03;;;;;;;13.84;100.00;99373.69;1727318;83;21149;-68
2023/11/01 01:12:40;;;;;;;13.68;5.08;;;;;;;13.85;100.00;99381.41;1727487;83;21167;-67
2023/11/01 01:15:10;;;;;;;13.88;5.15;;;;;;;13.84;100.00;99376.98;1727204;83;21581;-66
2023/11/01 01:17:39;;;;;;;9.93;4.58;;;;;;;13.84;100.00;99377.81;1727391;83;21105;-67
2023/11/01 01:20:10;;;;;;;14.15;5.03;;;;;;;13.85;100.00;99374.52;1727540;83;21133;-67
2023/11/01 01:22:40;;;;;;;12.90;5.12;;;;;;;13.84;100.00;99384.70;1707249;82;21106;-67
2023/11/01 01:25:08;;;;;;;13.98;5.10;;;;;;;13.85;100.00;99386.92;1727260;83;21611;-66
2023/11/01 01:27:41;;;;;;;12.40;5.00;;;;;;;13.85;100.00;99385.54;1727262;83;21177;-67
2023/11/01 01:30:11;;;;;;;11.75;5.33;;;;;;;13.87;100.00;99390.27;1727329;83;21541;-66
2023/11/01 01:32:40;;;;;;;11.22;4.97;;;;;;;13.88;100.00;99380.38;1727434;82;21133;-67
2023/11/01 01:35:12;;;;;;;12.90;4.83;;;;;;;13.91;100.00;99381.81;1727210;83;21101;-67
2023/11/01 01:37:42;;;;;;;10.75;5.15;;;;;;;13.92;100.00;99380.73;1727344;83;21180;-66
2023/11/01 01:40:12;;;;;;;12.13;4.80;;;;;;;13.92;100.00;99380.19;1727268;82;21157;-66
2023/11/01 01:42:40;;;;;;;15.95;5.87;;;;;;;13.94;100.00;99386.83;1706285;83;21593;-65
2023/11/01 01:45:10;;;;;;;10.80;4.78;;;;;;;13.96;100.00;99384.67;1723317;82;21113;-66
2023/11/01 01:47:39;;;;;;;12.43;5.08;;;;;;;13.98;100.00;99383.87;1723246;82;21125;-66
2023/11/01 01:50:09;;;;;;;10.55;5.05;;;;;;;13.99;100.00;99377.83;1723122;82;21355;-67
2023/11/01 01:52:39;;;;;;;10.88;4.92;;;;;;;14.00;100.00;99362.44;1723319;83;21149;-67
2023/11/01 01:55:10;;;;;;;17.25;5.22;;;;;;;14.01;100.00;99368.24;1723520;82;21189;-66
2023/11/01 01:57:41;;;;;;;14.18;4.90;;;;;;;14.03;100.00;99361.95;1723220;82;21554;-67
2023/11/01 02:00:12;;;;;;;12.90;5.08;;;;;;;14.02;100.00;99364.41;1723070;83;21169;-67
2023/11/01 02:02:42;;;;;;;10.30;4.75;;;;;;;14.03;100.00;99364.70;1723311;83;21582;-66
2023/11/01 02:05:11;;;;;;;10.03;4.42;;;;;;;14.04;100.00;99360.86;1723360;83;21173;-66
2023/11/01 02:07:39;;;;;;;11.30;5.15;;;;;;;14.05;100.00;99358.95;1723083;83;21082;-66
2023/11/01 02:10:14;;;;;;;10.30;5.58;;;;;;;14.05;100.00;99350.14;1723127;83;21240;-66
2023/11/01 02:12:41;;;;;;;12.93;5.22;;;;;;;14.05;100.00;99352.90;1723067;83;21200;-66
2023/11/01 02:15:10;;;;;;;17.27;5.28;;;;;;;14.07;100.00;99357.62;1723424;83;21137;-65
2023/11/01 02:17:39;;;;;;;11.30;4.97;;;;;;;14.08;100.00;99371.69;1723245;83;21169;-66
2023/11/01 02:20:09;;;;;;;15.20;5.92;;;;;;;14.08;100.00;99377.20;1723091;83;21630;-66
2023/11/01 02:22:38;;;;;;;12.58;5.40;;;;;;;14.08;100.00;99373.61;1723274;83;21153;-65
2023/11/01 02:25:08;;;;;;;18.32;6.03;;;;;;;14.09;100.00;99356.83;1723328;83;21593;-69
2023/11/01 02:27:36;;;;;;;16.57;5.58;;;;;;;14.09;100.00;99358.20;1723222;83;21101;-68
2023/11/01 02:30:07;;;;;;;12.37;5.42;;;;;;;14.10;100.00;99359.88;1723148;82;21094;-68
2023/11/01 02:32:35;;;;;;;12.80;5.72;;;;;;;14.09;100.00;99367.85;1723145;82;21121;-67
2023/11/01 02:35:06;;;;;;;13.10;5.55;;;;;;;14.12;100.00;99359.64;1723288;83;21612;-67
2023/11/01 02:37:34;;;;;;;12.43;6.08;;;;;;;14.13;100.00;99354.42;1723021;83;21117;-68
2023/11/01 02:40:05;;;;;;;12.80;5.67;;;;;;;14.14;100.00;99342.32;1723038;82;21603;-67
2023/11/01 02:42:34;;;;;;;16.77;6.03;;;;;;;14.15;100.00;99335.73;1723771;83;21093;-66
2023/11/01 02:45:04;;;;;;;11.65;6.08;;;;;;;14.17;100.00;99350.92;1729917;83;21105;-67
2023/11/01 02:47:33;;;;;;;15.93;6.47;;;;;;;14.18;100.00;99347.63;1729861;83;21639;-72
2023/11/01 02:50:07;;;;;;;16.50;6.17;;;;;;;14.18;100.00;99341.58;1729853;83;21156;-67
2023/11/01 02:52:40;;;;;;;13.30;6.42;;;;;;;14.20;100.00;99334.44;1729787;83;21121;-68
2023/11/01 02:55:10;;;;;;;14.60;6.67;;;;;;;14.21;100.00;99336.12;1730018;83;21145;-67
2023/11/01 02:57:39;;;;;;;13.28;6.10;;;;;;;14.22;100.00;99340.00;1729753;83;21601;-67
2023/11/01 03:00:17;;;;;;;12.20;6.45;;;;;;;14.25;100.00;99326.27;1729793;83;21169;-65
2023/11/01 03:02:40;;;;;;;14.47;6.87;;;;;;;14.26;100.00;99345.85;1728787;83;21173;-67
2023/11/01 03:05:09;;;;;;;18.42;6.90;;;;;;;14.28;100.00;99350.58;1729777;83;21196;-66
2023/11/01 03:07:40;;;;;;;16.45;7.08;;;;;;;14.29;100.00;99342.06;1729560;83;21133;-67
2023/11/01 03:10:10;;;;;;;14.87;6.53;;;;;;;14.31;100.00;99338.25;1729974;83;21135;-65
2023/11/01 03:12:40;;;;;;;12.25;6.58;;;;;;;14.33;100.00;99331.95;1730166;83;21133;-67
2023/11/01 03:15:09;;;;;;;14.68;6.33;;;;;;;14.33;100.00;99327.82;1730021;83;21628;-67
2023/11/01 03:17:38;;;;;;;13.72;6.45;;;;;;;14.34;100.00;99323.98;1677122;83;21145;-66
2023/11/01 03:20:08;;;;;;;12.23;6.30;;;;;;;14.35;100.00;99322.89;1729969;83;21154;-67
2023/11/01 03:22:37;;;;;;;17.32;7.10;;;;;;;14.35;100.00;99320.14;1729952;83;21110;-66
2023/11/01 03:25:08;;;;;;;13.25;6.97;;;;;;;14.36;100.00;99313.00;1729603;83;21136;-65
2023/11/01 03:27:37;;;;;;;16.02;6.70;;;;;;;14.38;100.00;99314.13;1729938;83;21133;-67
2023/11/01 03:30:09;;;;;;;13.15;6.65;;;;;;;14.38;100.00;99314.13;1729765;83;21619;-66
2023/11/01 03:32:38;;;;;;;13.28;7.42;;;;;;;14.39;100.00;99305.61;1729811;83;21591;-66
2023/11/01 03:35:08;;;;;;;15.93;7.03;;;;;;;14.39;100.00;99299.27;1729964;83;21189;-67
2023/11/01 03:37:37;;;;;;;15.58;7.53;;;;;;;14.41;100.00;99301.23;1729594;83;21121;-67
2023/11/01 03:40:08;;;;;;;14.45;7.60;;;;;;;14.42;100.00;99309.28;1729664;83;21153;-67
2023/11/01 03:42:37;;;;;;;15.58;7.15;;;;;;;14.44;100.00;99311.78;1730044;83;21149;-67
2023/11/01 03:45:09;;;;;;;17.67;7.08;;;;;;;14.44;100.00;99312.63;1723083;83;21094;-66
2023/11/01 03:47:39;;;;;;;12.20;6.95;;;;;;;14.44;100.00;99312.63;1723101;83;21126;-66
2023/11/01 03:50:09;;;;;;;15.63;6.72;;;;;;;14.47;100.00;99309.91;1723339;83;21197;-67
2023/11/01 03:52:38;;;;;;;14.47;7.00;;;;;;;14.46;100.00;99314.58;1723326;83;21121;-68
2023/11/01 03:55:11;;;;;;;15.60;7.35;;;;;;;14.47;100.00;99306.61;1723133;83;21149;-65
2023/11/01 03:57:38;;;;;;;16.02;7.28;;;;;;;14.48;100.00;99314.33;1723254;83;21706;-67
2023/11/01 04:00:09;;;;;;;13.38;7.42;;;;;;;14.48;100.00;99302.77;1723149;83;21442;-66
2023/11/01 04:02:39;;;;;;;17.55;7.42;;;;;;;14.49;100.00;99311.88;1705275;83;21145;-67
2023/11/01 04:05:09;;;;;;;17.57;8.13;;;;;;;14.50;100.00;99310.78;1723546;82;21149;-67
2023/11/01 04:07:39;;;;;;;12.35;7.00;;;;;;;14.51;100.00;99309.70;1723077;82;21085;-67
2023/11/01 04:10:09;;;;;;;19.00;7.70;;;;;;;14.50;100.00;99305.27;1723181;83;21133;-66
2023/11/01 04:12:38;;;;;;;15.58;7.45;;;;;;;14.53;100.00;99313.05;1723264;83;21153;-67
2023/11/01 04:15:10;;;;;;;18.62;8.03;;;;;;;14.53;100.00;99313.88;1723414;83;21106;-68
2023/11/01 04:17:39;;;;;;;15.50;7.40;;;;;;;14.54;100.00;99317.47;1723092;83;21568;-68
2023/11/01 04:20:09;;;;;;;14.63;8.10;;;;;;;14.55;100.00;99319.14;1723378;83;21210;-66
2023/11/01 04:22:38;;;;;;;15.30;7.65;;;;;;;14.55;100.00;99317.77;1723156;82;21153;-67
2023/11/01 04:25:10;;;;;;;17.12;8.85;;;;;;;14.56;100.00;99314.76;1723162;82;21655;-68
2023/11/01 04:27:40;;;;;;;20.90;8.83;;;;;;;14.56;100.00;99316.14;1723120;82;21608;-66
2023/11/01 04:30:10;;;;;;;16.73;9.03;;;;;;;14.56;100.00;99300.97;1723424;83;21145;-67
2023/11/01 04:32:40;;;;;;;17.90;9.08;;;;;;;14.57;100.00;99300.43;1723371;82;21164;-66
2023/11/01 04:35:10;;;;;;;17.30;8.65;;;;;;;14.57;100.00;99307.33;1723167;82;21180;-67
2023/11/01 04:37:39;;;;;;;18.75;9.08;;;;;;;14.57;99.98;99305.40;1723106;82;21126;-66
2023/11/01 04:40:13;;;;;;;15.88;9.25;;;;;;;14.58;99.92;99306.23;1723158;83;21188;-66
2023/11/01 04:42:44;;;;;;;14.98;9.58;;;;;;;14.59;99.74;99298.26;1723081;83;21149;-66
2023/11/01 04:45:13;;;;;;;17.27;9.43;;;;;;;14.59;99.60;99293.58;1729144;82;21149;-66
2023/11/01 04:47:46;;;;;;;21.50;8.83;;;;;;;14.60;99.49;99294.41;1729868;83;21156;-67
2023/11/01 04:50:15;;;;;;;16.02;9.08;;;;;;;14.63;99.37;99299.42;1730029;81;21172;-67
2023/11/01 04:52:44;;;;;;;14.90;8.80;;;;;;;14.63;99.28;99302.73;1729861;83;21117;-66
2023/11/01 04:55:13;;;;;;;18.05;9.40;;;;;;;14.64;99.11;99303.85;1729833;83;21188;-67
2023/11/01 04:57:43;;;;;;;18.75;9.45;;;;;;;14.66;99.00;99304.98;1729810;83;21097;-67
2023/11/01 05:00:16;;;;;;;17.37;9.50;;;;;;;14.65;98.91;99306.91;1730028;83;21125;-67
2023/11/01 05:02:46;;;;;;;16.00;8.75;;;;;;;14.66;98.81;99316.01;1730146;83;21105;-66
2023/11/01 05:05:15;;;;;;;17.77;9.23;;;;;;;14.66;98.70;99313.25;1729999;83;21253;-66
2023/11/01 05:07:44;;;;;;;19.67;9.55;;;;;;;14.66;98.59;99314.63;1700054;83;21196;-67
2023/11/01 05:10:13;;;;;;;43.48;28.42;;;;;;;14.64;98.50;99323.70;1729883;83;21145;-66
2023/11/01 05:12:42;;;;;;;20.17;10.23;;;;;;;14.63;98.25;99329.75;1730205;83;21198;-66
2023/11/01 05:15:11;;;;;;;18.02;9.68;;;;;;;14.61;98.19;99323.66;1729909;83;21113;-66
2023/11/01 05:17:40;;;;;;;17.90;9.85;;;;;;;14.61;98.14;99328.33;1729808;83;21145;-66
2023/11/01 05:20:11;;;;;;;21.00;10.15;;;;;;;14.61;98.04;99327.78;1730023;83;21149;-67
2023/11/01 05:22:41;;;;;;;17.17;9.60;;;;;;;14.60;97.99;99335.77;1729826;83;21597;-66
2023/11/01 05:25:14;;;;;;;18.92;9.45;;;;;;;14.61;97.87;99336.60;1730019;83;21121;-65
2023/11/01 05:27:42;;;;;;;19.80;10.13;;;;;;;14.60;97.77;99339.91;1729961;83;21113;-66
2023/11/01 05:30:17;;;;;;;16.45;10.25;;;;;;;14.61;97.71;99345.70;1729971;83;21094;-67
2023/11/01 05:32:45;;;;;;;17.25;8.93;;;;;;;14.60;97.53;99346.80;1729788;83;21086;-66
2023/11/01 05:35:15;;;;;;;18.60;9.43;;;;;;;14.59;97.41;99341.82;1729885;81;21114;-67
2023/11/01 05:37:44;;;;;;;19.62;9.40;;;;;;;14.59;97.31;99347.34;1729829;83;21121;-67
2023/11/01 05:40:13;;;;;;;18.98;9.23;;;;;;;14.62;97.27;99354.27;1729823;83;21585;-67
2023/11/01 05:42:44;;;;;;;17.27;9.88;;;;;;;14.62;97.20;99361.16;1729811;83;21098;-66
2023/11/01 05:45:16;;;;;;;24.00;9.23;;;;;;;14.65;97.08;99355.15;1724586;83;21573;-66
2023/11/01 05:47:49;;;;;;;21.40;9.85;;;;;;;14.66;96.91;99352.69;1723240;82;21750;-67
2023/11/01 05:50:25;;;;;;;18.60;11.20;;;;;;;14.67;96.69;99351.60;1723045;82;21584;-67
2023/11/01 05:52:56;;;;;;;18.80;9.68;;;;;;;14.66;96.42;99344.41;1723206;83;21117;-67
2023/11/01 05:55:26;;;;;;;19.70;9.60;;;;;;;14.67;96.39;99343.33;1723052;83;21125;-67
2023/11/01 05:57:58;;;;;;;16.27;9.55;;;;;;;14.67;96.10;99354.36;1720595;83;21125;-68
2023/11/01 06:00:27;;;;;;;17.87;8.98;;;;;;;14.69;95.99;99355.48;1723250;83;21149;-67
2023/11/01 06:02:55;;;;;;;16.97;9.43;;;;;;;14.71;95.87;99356.91;1723366;82;21098;-66
2023/11/01 06:05:27;;;;;;;14.73;8.80;;;;;;;14.73;95.75;99347.00;1723031;83;21130;-66
2023/11/01 06:07:56;;;;;;;25.15;10.20;;;;;;;14.74;95.55;99340.41;1723236;83;21137;-67
2023/11/01 06:10:25;;;;;;;19.67;9.90;;;;;;;14.75;95.51;99347.59;1722963;83;21845;-66
2023/11/01 06:12:55;;;;;;;19.15;10.65;;;;;;;14.77;95.49;99340.73;1723163;83;21110;-67
2023/11/01 06:15:24;;;;;;;19.50;10.28;;;;;;;14.81;95.41;99337.77;1723232;82;21200;-67
2023/11/01 06:17:53;;;;;;;15.83;9.83;;;;;;;14.82;95.22;99343.58;1723191;83;21193;-67
2023/11/01 06:20:22;;;;;;;17.27;11.12;;;;;;;14.85;95.01;99351.34;1723013;83;21635;-68
2023/11/01 06:22:51;;;;;;;23.47;10.58;;;;;;;14.88;94.68;99358.28;1723346;83;21098;-68
2023/11/01 06:25:20;;;;;;;16.70;9.60;;;;;;;14.88;94.37;99368.77;1723219;82;21141;-68
2023/11/01 06:27:49;;;;;;;17.62;9.15;;;;;;;14.91;94.30;99366.89;1723007;82;21138;-66
2023/11/01 06:30:19;;;;;;;19.98;9.20;;;;;;;14.96;93.99;99364.79;1723172;83;21197;-67
2023/11/01 06:32:47;;;;;;;17.00;9.13;;;;;;;15.00;93.73;99359.60;1723228;83;21130;-68
2023/11/01 06:35:17;;;;;;;16.97;9.23;;;;;;;15.00;93.45;99356.30;1723210;82;21122;-67
2023/11/01 06:37:48;;;;;;;17.62;9.13;;;;;;;15.04;93.18;99356.63;1723264;83;21129;-67
2023/11/01 06:40:17;;;;;;;19.02;9.58;;;;;;;15.06;92.86;99366.33;1723163;83;21129;-67
2023/11/01 06:42:46;;;;;;;19.17;8.68;;;;;;;15.08;92.50;99371.59;1723009;83;21222;-68
2023/11/01 06:45:15;;;;;;;18.67;9.48;;;;;;;15.09;92.35;99370.50;1722947;83;21101;-68
2023/11/01 06:47:44;;;;;;;14.90;9.10;;;;;;;15.12;92.25;99363.94;1722939;83;21118;-67
2023/11/01 06:50:13;;;;;;;20.05;9.40;;;;;;;15.16;91.96;99367.02;1723111;83;21146;-68
2023/11/01 06:52:44;;;;;;;22.07;10.40;;;;;;;15.19;91.64;99376.17;1723202;83;21557;-66
2023/11/01 06:55:13;;;;;;;16.23;9.83;;;;;;;15.20;91.41;99379.23;1723203;83;21165;-67
2023/11/01 06:57:42;;;;;;;15.55;9.00;;;;;;;15.20;91.26;99376.47;1722966;83;21749;-68
2023/11/01 07:00:13;;;;;;;15.95;8.85;;;;;;;15.23;91.11;99380.10;1722933;83;21117;-68
2023/11/01 07:02:43;;;;;;;16.45;8.93;;;;;;;15.23;90.78;99369.06;1723006;82;21097;-68
2023/11/01 07:05:12;;;;;;;18.95;9.38;;;;;;;15.22;90.43;99366.02;1723148;83;21146;-68
2023/11/01 07:07:41;;;;;;;20.48;9.35;;;;;;;15.20;90.28;99362.67;1723075;83;21150;-67
2023/11/01 07:10:11;;;;;;;16.25;8.48;;;;;;;15.18;90.22;99362.92;1723010;82;21581;-67
2023/11/01 07:12:40;;;;;;;21.00;9.33;;;;;;;15.19;90.29;99368.73;1723175;82;21125;-68
2023/11/01 07:15:11;;;;;;;17.20;9.00;;;;;;;15.21;90.25;99372.62;1723222;83;21129;-68
2023/11/01 07:17:41;;;;;;;14.93;8.65;;;;;;;15.22;90.23;99375.67;1723286;82;21117;-67
2023/11/01 07:20:12;;;;;;;18.42;9.88;;;;;;;15.23;90.06;99368.52;1723135;82;21553;-67
2023/11/01 07:22:41;;;;;;;18.35;8.80;;;;;;;15.26;89.93;99368.56;1723332;83;21138;-68
2023/11/01 07:25:11;;;;;;;15.60;9.18;;;;;;;15.30;89.84;99364.74;1723138;82;21145;-67
2023/11/01 07:27:39;;;;;;;19.85;9.40;;;;;;;15.31;89.63;99359.52;1723002;83;21097;-66
2023/11/01 07:30:09;;;;;;;18.57;9.58;;;;;;;15.31;89.42;99369.17;1723111;82;21611;-67
2023/11/01 07:32:38;;;;;;;17.95;8.40;;;;;;;15.32;89.37;99370.84;1723266;83;21172;-67
2023/11/01 07:35:08;;;;;;;18.48;9.38;;;;;;;15.33;89.38;99370.59;1723141;83;21637;-68
2023/11/01 07:37:38;;;;;;;15.93;8.18;;;;;;;15.37;89.25;99372.30;1723062;83;21517;-68
2023/11/01 07:40:09;;;;;;;18.90;9.08;;;;;;;15.39;89.04;99363.22;1723179;83;21146;-67
2023/11/01 07:42:40;;;;;;;18.15;9.63;;;;;;;15.40;88.90;99368.48;1723445;82;21145;-68
2023/11/01 07:45:10;;;;;;;16.75;8.68;;;;;;;15.43;88.75;99358.31;1726413;82;21137;-68
2023/11/01 07:47:41;;;;;;;17.12;9.30;;;;;;;15.46;88.56;99369.39;1729724;83;21114;-68
2023/11/01 07:50:13;;;;;;;21.02;10.15;;;;;;;15.46;88.29;99361.95;1729898;83;21125;-67
2023/11/01 07:52:43;;;;;;;15.95;10.15;;;;;;;15.47;88.29;99367.75;1730062;83;21114;-67
2023/11/01 07:55:12;;;;;;;18.00;9.60;;;;;;;15.51;88.13;99364.78;1730034;83;21129;-67
2023/11/01 07:57:41;;;;;;;16.80;9.23;;;;;;;15.52;87.64;99369.20;1729922;81;21284;-70
2023/11/01 08:00:13;;;;;;;16.00;9.45;;;;;;;15.55;87.57;99372.00;1729992;83;21099;-69
2023/11/01 08:02:42;;;;;;;19.95;9.58;;;;;;;15.57;87.40;99373.97;1729957;83;21113;-68
2023/11/01 08:05:11;;;;;;;19.42;8.93;;;;;;;15.60;87.19;99381.77;1730248;83;21601;-67
2023/11/01 08:07:41;;;;;;;16.60;8.53;;;;;;;15.63;86.70;99371.62;1729894;83;21619;-68
2023/11/01 08:10:11;;;;;;;17.30;7.90;;;;;;;15.65;86.06;99375.51;1729854;83;21572;-68
2023/11/01 08:12:40;;;;;;;12.85;7.08;;;;;;;15.67;85.65;99382.98;1729816;82;21628;-67
2023/11/01 08:15:10;;;;;;;12.93;6.85;;;;;;;15.67;84.63;99389.35;1730058;83;21172;-66
2023/11/01 08:17:40;;;;;;;13.72;6.50;;;;;;;15.66;84.03;99400.11;1729761;83;21145;-68
2023/11/01 08:20:14;;;;;;;14.15;6.33;;;;;;;15.69;83.60;99409.26;1729811;83;21093;-68
2023/11/01 08:22:44;;;;;;;13.28;6.70;;;;;;;15.70;83.30;99410.94;1729933;83;21114;-67
2023/11/01 08:25:13;;;;;;;15.98;7.90;;;;;;;15.72;83.13;99418.41;1729924;83;21612;-67
2023/11/01 08:27:43;;;;;;;13.22;7.65;;;;;;;15.77;82.85;99427.31;1729855;83;21133;-67
2023/11/01 08:30:13;;;;;;;12.88;7.35;;;;;;;15.76;82.36;99433.93;1729990;83;21124;-67
2023/11/01 08:32:41;;;;;;;13.45;7.05;;;;;;;15.76;82.47;99443.05;1729794;83;21548;-68
2023/11/01 08:35:11;;;;;;;14.70;7.03;;;;;;;15.76;82.26;99448.58;1729796;83;21209;-68
2023/11/01 08:37:40;;;;;;;12.93;7.60;;;;;;;15.74;82.14;99451.30;1729831;83;21117;-67
2023/11/01 08:40:10;;;;;;;12.37;8.40;;;;;;;15.72;82.12;99452.10;1729956;83;21137;-67
2023/11/01 08:42:39;;;;;;;20.77;8.98;;;;;;;15.69;82.25;99452.06;1729971;81;21622;-68
2023/11/01 08:45:09;;;;;;;13.78;8.85;;;;;;;15.67;82.29;99454.25;1729669;83;21129;-67
2023/11/01 08:47:44;;;;;;;13.25;7.83;;;;;;;15.66;82.45;99444.83;1729725;83;21102;-67
2023/11/01 08:50:15;;;;;;;14.98;7.58;;;;;;;15.65;82.59;99443.16;1729900;83;21591;-67
2023/11/01 08:52:44;;;;;;;11.00;7.03;;;;;;;15.58;82.95;99448.83;1729884;83;21113;-66
2023/11/01 08:55:14;;;;;;;17.87;8.80;;;;;;;15.57;83.51;99443.53;1729729;83;21638;-66
2023/11/01 08:57:44;;;;;;;14.85;8.40;;;;;;;15.57;83.79;99442.16;1726306;81;21134;-68
2023/11/01 09:00:18;;;;;;;14.58;7.17;;;;;;;15.55;84.25;99433.58;1718427;81;21110;-70
2023/11/01 09:02:49;;;;;;;14.75;6.90;;;;;;;15.52;84.60;99436.84;1704654;82;21616;-67
2023/11/01 09:05:18;;;;;;;10.55;5.55;;;;;;;15.52;84.68;99445.67;1697953;83;21605;-68
2023/11/01 09:07:48;;;;;;;14.25;6.30;;;;;;;15.50;84.50;99464.42;1731643;83;21653;-67
2023/11/01 09:10:19;;;;;;;14.38;7.12;;;;;;;15.46;84.48;99462.70;1731286;83;21621;-68
2023/11/01 09:12:47;;;;;;;12.25;6.78;;;;;;;15.43;84.74;99470.11;1731410;83;21150;-68
2023/11/01 09:15:16;;;;;;;10.95;6.10;;;;;;;15.43;85.04;99463.76;1730775;83;21633;-68
2023/11/01 09:17:45;;;;;;;14.10;6.75;;;;;;;15.40;85.44;99462.34;1730038;82;21166;-71
2023/11/01 09:20:15;;;;;;;13.30;6.85;;;;;;;15.38;85.93;99456.23;1729960;82;21197;-71
2023/11/01 09:22:45;;;;;;;15.13;6.25;;;;;;;15.35;86.36;99460.87;1700591;84;21125;-68
2023/11/01 09:25:15;;;;;;;10.48;5.53;;;;;;;15.33;87.06;99458.91;1669204;85;21189;-69
2023/11/01 09:27:44;;;;;;;8.75;5.15;;;;;;;15.33;87.60;99451.17;1669181;86;21158;-68
2023/11/01 09:30:15;;;;;;;9.88;5.97;;;;;;;15.31;88.06;99450.05;1700366;84;21197;-67
2023/11/01 09:32:44;;;;;;;11.75;7.20;;;;;;;15.29;88.55;99450.84;1723604;83;21122;-67
2023/11/01 09:35:15;;;;;;;11.18;6.97;;;;;;;15.26;88.91;99450.51;1729637;83;21138;-71
2023/11/01 09:37:44;;;;;;;10.30;6.70;;;;;;;15.22;89.44;99441.90;1729764;83;21185;-70
2023/11/01 09:40:13;;;;;;;13.13;6.97;;;;;;;15.19;89.83;99457.03;1729447;81;21161;-68
2023/11/01 09:42:43;;;;;;;16.70;7.80;;;;;;;15.15;90.15;99453.65;1729554;81;21182;-71
2023/11/01 09:45:12;;;;;;;12.58;6.70;;;;;;;15.09;90.60;99445.83;1728088;83;21149;-70
2023/11/01 09:47:42;;;;;;;12.13;6.95;;;;;;;15.05;91.35;99449.34;1723083;83;21133;-70
2023/11/01 09:50:13;;;;;;;15.55;8.38;;;;;;;14.99;91.91;99442.06;1722737;83;21581;-72
2023/11/01 09:52:43;;;;;;;18.73;7.70;;;;;;;14.98;92.68;99442.61;1723032;82;21584;-69
2023/11/01 09:55:19;;;;;;;15.32;6.87;;;;;;;14.98;93.34;99450.05;1722729;82;21185;-71
2023/11/01 09:57:45;;;;;;;15.08;8.45;;;;;;;14.94;93.77;99443.33;1685128;85;21581;-70
2023/11/01 10:00:15;;;;;;;15.75;8.95;;;;;;;14.90;94.28;99436.09;1577985;91;21231;-71
2023/11/01 10:02:44;;;;;;;10.10;6.72;;;;;;;14.88;94.79;99439.10;1618646;88;21169;-71
2023/11/01 10:05:13;;;;;;;15.38;7.40;;;;;;;14.87;95.06;99431.91;1615153;88;21166;-71
2023/11/01 10:07:43;;;;;;;11.50;6.30;;;;;;;14.82;95.28;99429.06;1596178;88;21158;-71
2023/11/01 10:10:18;;;;;;;11.05;6.15;;;;;;;14.79;95.58;99424.05;1618496;88;21236;-71
2023/11/01 10:12:47;;;;;;;11.63;4.85;;;;;;;14.77;96.02;99426.22;1618728;88;21165;-68
2023/11/01 10:15:21;;;;;;;12.35;6.12;;;;;;;14.76;96.25;99425.09;1618694;88;21197;-69
2023/11/01 10:17:51;;;;;;;9.48;5.42;;;;;;;14.67;96.15;99420.53;1618685;88;21272;-69
2023/11/01 10:20:27;;;;;;;11.00;5.55;;;;;;;14.65;96.68;99421.31;1618322;87;21265;-69
2023/11/01 10:22:57;;;;;;;13.20;5.72;;;;;;;14.64;96.86;99415.51;1618760;87;21192;-70
2023/11/01 10:25:28;;;;;;;11.15;5.42;;;;;;;14.65;97.01;99413.59;1696560;83;21117;-68
2023/11/01 10:27:58;;;;;;;10.55;5.05;;;;;;;14.66;97.29;99417.48;1722907;83;21573;-68
2023/11/01 10:30:27;;;;;;;11.45;7.22;;;;;;;14.65;97.67;99411.66;1722854;83;21133;-70
2023/11/01 10:32:58;;;;;;;13.18;8.60;;;;;;;14.69;97.81;99414.22;1704561;83;21160;-68
2023/11/01 10:35:28;;;;;;;13.98;8.13;;;;;;;14.72;97.90;99418.41;1722874;83;21185;-70
2023/11/01 10:38:00;;;;;;;10.93;7.65;;;;;;;14.70;97.80;99420.03;1722765;83;21773;-70
2023/11/01 10:40:29;;;;;;;13.88;8.00;;;;;;;14.68;97.67;99418.06;1722871;83;21920;-71
2023/11/01 10:43:04;;;;;;;10.00;6.83;;;;;;;14.70;97.94;99414.52;1681835;83;21149;-69
2023/11/01 10:45:35;;;;;;;10.88;6.33;;;;;;;14.70;97.93;99409.00;1722760;81;21271;-70
2023/11/01 10:48:04;;;;;;;12.40;8.33;;;;;;;14.71;98.01;99414.80;1722803;83;21553;-70
2023/11/01 10:50:35;;;;;;;13.28;7.78;;;;;;;14.74;98.17;99412.09;1723007;83;21150;-69
2023/11/01 10:53:04;;;;;;;14.55;8.35;;;;;;;14.75;98.15;99406.87;1722664;83;21664;-69
2023/11/01 10:55:33;;;;;;;7.22;4.55;;;;;;;14.77;98.35;99416.56;1722802;83;21145;-72
2023/11/01 10:58:02;;;;;;;5.97;3.90;;;;;;;14.78;98.27;99415.48;1722728;83;21058;-69
2023/11/01 11:00:46;;;;;;;5.95;3.77;;;;;;;14.80;98.28;99413.31;1723029;83;21074;-69
2023/11/01 11:04:10;;;;;;;8.05;3.90;;;;;;;14.78;98.27;99412.73;1722858;83;21021;-68
2023/11/01 11:06:44;;;;;;;12.80;6.50;;;;;;;14.78;98.21;99418.78;1723348;82;21007;-69
2023/11/01 11:09:22;;;;;;;;;;;;;;;14.77;98.48;99416.56;1725415;83;21010;-69
2023/11/01 11:12:21;;;;;;;11.35;5.03;;;;;;;14.77;98.71;99422.08;1722981;83;20169;-70
2023/11/01 11:14:51;;;;;;;10.75;5.03;;;;;;;14.75;98.81;99425.63;1722874;83;21034;-70
2023/11/01 11:17:28;;;;;;;8.98;5.10;;;;;;;14.76;99.01;99431.44;1722977;83;21070;-68
2023/11/01 11:20:12;;;;;;;15.18;5.47;;;;;;;14.76;99.11;99436.13;1722134;83;21090;-69
2023/11/01 11:23:08;;;;;;;13.70;6.50;;;;;;;14.74;99.11;99436.37;1722796;83;21049;-68
2023/11/01 11:25:44;;;;;;;9.58;4.97;;;;;;;14.74;99.23;99433.61;1723026;82;21069;-69
2023/11/01 11:28:44;;;;;;;11.57;6.15;;;;;;;14.75;99.46;99433.07;1722636;82;21081;-68
2023/11/01 11:31:17;;;;;;;9.45;5.85;;;;;;;14.74;99.43;99445.19;1722313;82;21054;-68
2023/11/01 11:33:52;;;;;;;12.03;7.40;;;;;;;14.73;99.72;99440.21;1705668;83;21082;-70
2023/11/01 11:36:24;;;;;;;9.28;6.72;;;;;;;14.73;99.77;99438.00;1722800;82;21081;-68